Map

Track Data

SID SEASON NUMBER BASIN SUBBASIN NAME ISO_TIME NATURE LAT LON WMO_WIND WMO_PRES WMO_AGENCY TRACK_TYPE DIST2LAND LANDFALL IFLAG USA_AGENCY USA_ATCF_ID USA_LAT USA_LON USA_RECORD USA_STATUS USA_WIND USA_PRES USA_SSHS USA_R34_NE USA_R34_SE USA_R34_SW USA_R34_NW USA_R50_NE USA_R50_SE USA_R50_SW USA_R50_NW USA_R64_NE USA_R64_SE USA_R64_SW USA_R64_NW USA_POCI USA_ROCI USA_RMW USA_EYE TOKYO_LAT TOKYO_LON TOKYO_GRADE TOKYO_WIND TOKYO_PRES TOKYO_R50_DIR TOKYO_R50_LONG TOKYO_R50_SHORT TOKYO_R30_DIR TOKYO_R30_LONG TOKYO_R30_SHORT TOKYO_LAND CMA_LAT CMA_LON CMA_CAT CMA_WIND CMA_PRES HKO_LAT HKO_LON HKO_CAT HKO_WIND HKO_PRES NEWDELHI_LAT NEWDELHI_LON NEWDELHI_GRADE NEWDELHI_WIND NEWDELHI_PRES NEWDELHI_CI NEWDELHI_DP NEWDELHI_POCI REUNION_LAT REUNION_LON REUNION_TYPE REUNION_WIND REUNION_PRES REUNION_TNUM REUNION_CI REUNION_RMW REUNION_R34_NE REUNION_R34_SE REUNION_R34_SW REUNION_R34_NW REUNION_R50_NE REUNION_R50_SE REUNION_R50_SW REUNION_R50_NW REUNION_R64_NE REUNION_R64_SE REUNION_R64_SW REUNION_R64_NW BOM_LAT BOM_LON BOM_TYPE BOM_WIND BOM_PRES BOM_TNUM BOM_CI BOM_RMW BOM_R34_NE BOM_R34_SE BOM_R34_SW BOM_R34_NW BOM_R50_NE BOM_R50_SE BOM_R50_SW BOM_R50_NW BOM_R64_NE BOM_R64_SE BOM_R64_SW BOM_R64_NW BOM_ROCI BOM_POCI BOM_EYE BOM_POS_METHOD BOM_PRES_METHOD NADI_LAT NADI_LON NADI_CAT NADI_WIND NADI_PRES WELLINGTON_LAT WELLINGTON_LON WELLINGTON_WIND WELLINGTON_PRES DS824_LAT DS824_LON DS824_STAGE DS824_WIND DS824_PRES TD9636_LAT TD9636_LON TD9636_STAGE TD9636_WIND TD9636_PRES TD9635_LAT TD9635_LON TD9635_WIND TD9635_PRES TD9635_ROCI NEUMANN_LAT NEUMANN_LON NEUMANN_CLASS NEUMANN_WIND NEUMANN_PRES MLC_LAT MLC_LON MLC_CLASS MLC_WIND MLC_PRES USA_GUST BOM_GUST BOM_GUST_PER REUNION_GUST REUNION_GUST_PER USA_SEAHGT USA_SEARAD_NE USA_SEARAD_SE USA_SEARAD_SW USA_SEARAD_NW STORM_SPEED STORM_DIR
1944035S10059 1944 10 SI MM NOT_NAMED 1944-02-04 06:00:00 NR -10.3000 59.4000 reunion main 1078 986 _____O________ -1 -10.3000 59.4000 99 9.90000 19 228
1944035S10059 1944 10 SI MM NOT_NAMED 1944-02-04 09:00:00 NR -10.9499 58.6770 main 986 892 _____P________ -1 -10.9499 58.6770 99 19 228
1944035S10059 1944 10 SI MM NOT_NAMED 1944-02-04 12:00:00 NR -11.5873 57.9626 main 892 800 _____P________ -1 -11.5873 57.9626 99 19 228
1944035S10059 1944 10 SI MM NOT_NAMED 1944-02-04 15:00:00 NR -12.2005 57.2698 main 800 787 _____P________ -1 -12.2005 57.2698 99 10 227
1944035S10059 1944 10 SI MM NOT_NAMED 1944-02-04 18:00:00 NR -12.2620 57.2296 main 787 735 _____P____O___ -1 -12.7775 56.6120 99 -10.2000 59.7000 7 8 227
1944035S10059 1944 10 SI MM NOT_NAMED 1944-02-04 21:00:00 NR -12.7130 56.7139 main 725 615 _____P____P___ -1 -13.3071 56.0026 99 -11.5247 58.1365 7 19 229
1944035S10059 1944 10 SI MM NOT_NAMED 1944-02-05 00:00:00 TS -13.4816 55.8072 main 602 510 _____P___OP___ -1 -13.7780 55.4551 99 -14.5000 54.6000 TC 25 -12.7469 56.6792 7 21 229
1944035S10059 1944 10 SI MM NOT_NAMED 1944-02-05 03:00:00 TS -14.0975 55.0859 main 510 447 _____P___PP___ -1 -14.1793 54.9830 99 -14.5900 54.5500 TC 25 -13.7694 55.4568 7 16 228
1944035S10059 1944 10 SI MM NOT_NAMED 1944-02-05 06:00:00 TS -14.5545 54.5727 reunion main 445 410 _____O___OO___ -1 -14.5000 54.6000 99 9.90000 -14.7000 54.5000 TC 25 -14.5000 54.6000 7 10 226
1944035S10059 1944 10 SI MM NOT_NAMED 1944-02-05 09:00:00 TS -14.8206 54.3190 main 410 398 _____P___PP___ -1 -14.7343 54.3151 99 -14.8425 54.4500 TC 25 -14.8851 54.1918 7 5 220
1944035S10059 1944 10 SI MM NOT_NAMED 1944-02-05 12:00:00 TS -14.9700 54.2153 main 398 398 _____P___OP___ -1 -14.8953 54.1200 99 -15.0000 54.4000 TC 25 -15.0147 54.1259 7 3 206
1944035S10059 1944 10 SI MM NOT_NAMED 1944-02-05 15:00:00 TS -15.0518 54.1996 main 397 397 _____P___PP___ -1 -15.0006 54.0016 99 -15.1425 54.3500 TC 25 -15.0122 54.2473 7 2 174
1944035S10059 1944 10 SI MM NOT_NAMED 1944-02-05 18:00:00 TS -15.1225 54.2156 main 397 396 _____P___OO___ -1 -15.0676 53.9468 99 -15.3000 54.3000 TC 25 -15.0000 54.4000 7 2 191
1944035S10059 1944 10 SI MM NOT_NAMED 1944-02-05 21:00:00 TS -15.2608 54.1639 main 396 386 _____P___PP___ -1 -15.1138 53.9425 99 -15.5000 54.2276 TC 25 -15.1687 54.3217 7 3 194
1944035S10059 1944 10 SI MM NOT_NAMED 1944-02-06 00:00:00 TS -15.4021 54.1410 main 386 386 _____P___OP___ -1 -15.1563 53.9754 99 -15.7000 54.2000 TC 25 -15.3500 54.2477 7 3 0
1944035S10059 1944 10 SI MM NOT_NAMED 1944-02-06 03:00:00 TS -15.5363 54.1674 main 396 396 _____P___PP___ -1 -15.2127 54.0323 99 -15.8650 54.2700 TC 25 -15.5312 54.1999 7 3 161
1944035S10059 1944 10 SI MM NOT_NAMED 1944-02-06 06:00:00 TS -15.6667 54.2333 reunion main 397 397 _____O___OO___ -1 -15.3000 54.1000 99 9.90000 -16.0000 54.4000 TC 25 -15.7000 54.2000 1 3 154
1944035S10059 1944 10 SI MM NOT_NAMED 1944-02-06 09:00:00 TS -15.8149 54.3027 main 409 409 _____P___PP___ -1 -15.4939 54.0950 99 -16.1075 54.5425 TC 30 -15.8435 54.2705 1 3 151
1944035S10059 1944 10 SI MM NOT_NAMED 1944-02-06 12:00:00 TS -15.9615 54.3995 main 422 422 _____P___OP___ -1 -15.7119 54.1086 99 -16.2000 54.7000 TC 35 -15.9725 54.3899 1 4 146
1944035S10059 1944 10 SI MM NOT_NAMED 1944-02-06 15:00:00 TS -16.1129 54.5101 main 435 435 _____P___PP___ -1 -15.9482 54.1411 99 -16.3000 54.8500 TC 35 -16.0903 54.5393 1 4 144
1944035S10059 1944 10 SI MM NOT_NAMED 1944-02-06 18:00:00 TS -16.2657 54.6310 main 450 450 _____P___OO___ -1 -16.1971 54.1929 99 -16.4000 55.0000 TC 35 -16.2000 54.7000 2 4 143
1944035S10059 1944 10 SI MM NOT_NAMED 1944-02-06 21:00:00 TS -16.4094 54.7434 main 463 463 _____P___PP___ -1 -16.4525 54.2643 99 -16.4849 55.1351 TC 35 -16.2909 54.8308 2 4 142
1944035S10059 1944 10 SI MM NOT_NAMED 1944-02-07 00:00:00 TS -16.5620 54.8753 main 478 462 _____P___OP___ -1 -16.7087 54.3557 99 -16.6000 55.3000 TC 35 -16.3774 54.9703 2 4 139
1944035S10059 1944 10 SI MM NOT_NAMED 1944-02-07 03:00:00 TS -16.7400 55.0448 main 462 432 _____P___PP___ -1 -16.9598 54.4675 99 -16.7850 55.5424 TC 35 -16.4752 55.1246 2 5 137
1944035S10059 1944 10 SI MM NOT_NAMED 1944-02-07 06:00:00 TS -16.9333 55.2333 reunion main 432 402 _____O___OO___ -1 -17.2000 54.6000 99 9.90000 -17.0000 55.8000 TC 35 -16.6000 55.3000 2 5 136
1944035S10059 1944 10 SI MM NOT_NAMED 1944-02-07 09:00:00 TS -17.1187 55.4252 main 402 371 _____P___PP___ -1 -17.4005 54.7451 99 -17.1925 56.0151 TC 35 -16.7632 55.5155 2 5 136
1944035S10059 1944 10 SI MM NOT_NAMED 1944-02-07 12:00:00 TS -17.3156 55.6210 main 371 341 _____P___OP___ -1 -17.5918 54.9130 99 -17.4000 56.2000 TC 35 -16.9552 55.7498 2 6 138
1944035S10059 1944 10 SI MM NOT_NAMED 1944-02-07 15:00:00 TS -17.5295 55.8140 main 341 311 _____P___PP___ -1 -17.7766 55.1002 99 -17.6425 56.3576 TC 35 -17.1695 55.9843 2 6 140
1944035S10059 1944 10 SI MM NOT_NAMED 1944-02-07 18:00:00 TS -17.7526 56.0010 main 301 271 _____P___OO___ -1 -17.9577 55.3030 99 -17.9000 56.5000 TC 35 -17.4000 56.2000 2 6 142
1944035S10059 1944 10 SI MM NOT_NAMED 1944-02-07 21:00:00 TS -17.9744 56.1747 main 271 247 _____P___PP___ -1 -18.1379 55.5180 99 -18.1500 56.6426 TC 35 -17.6354 56.3637 2 6 144
1944035S10059 1944 10 SI MM NOT_NAMED 1944-02-08 00:00:00 TS -18.2015 56.3498 main 247 217 _____P___OP___ -1 -18.3198 55.7415 99 -18.4000 56.8000 TC 35 -17.8848 56.5079 2 6 143
1944035S10059 1944 10 SI MM NOT_NAMED 1944-02-08 03:00:00 TS -18.4326 56.5369 main 217 177 _____P___PP___ -1 -18.5062 55.9700 99 -18.6500 56.9925 TC 35 -18.1417 56.6481 2 6 142
1944035S10059 1944 10 SI MM NOT_NAMED 1944-02-08 06:00:00 TS -18.6667 56.7333 reunion main 177 148 _____O___OO___ -1 -18.7000 56.2000 99 9.90000 -18.9000 57.2000 TC 35 -18.4000 56.8000 2 6 141
1944035S10059 1944 10 SI MM NOT_NAMED 1944-02-08 09:00:00 TS -18.9051 56.9423 main 148 119 _____P___PP___ -1 -18.8882 56.4257 99 -19.1650 57.4075 TC 35 -18.6622 56.9936 2 6 140
1944035S10059 1944 10 SI MM NOT_NAMED 1944-02-08 12:00:00 TS -19.1342 57.1522 main 116 91 _____P___OP___ -1 -19.0799 56.6567 99 -19.4000 57.6000 TC 35 -18.9226 57.1998 2 6 138
1944035S10059 1944 10 SI MM NOT_NAMED 1944-02-08 15:00:00 TS -19.3359 57.3513 main 90 67 _____P___PP___ -1 -19.2787 56.8903 99 -19.5575 57.7576 TC 35 -19.1716 57.4061 2 5 137
1944035S10059 1944 10 SI MM NOT_NAMED 1944-02-08 18:00:00 TS -19.5293 57.5412 main 67 44 _____P___OO___ -1 -19.4879 57.1237 99 -19.7000 57.9000 TC 35 -19.4000 57.6000 2 5 137
1944035S10059 1944 10 SI MM NOT_NAMED 1944-02-08 21:00:00 TS -19.6994 57.7128 main 44 24 _____P___PP___ -1 -19.7112 57.3541 99 -19.8474 58.0353 TC 35 -19.5395 57.7491 2 5 139
1944035S10059 1944 10 SI MM NOT_NAMED 1944-02-09 00:00:00 TS -19.9064 57.8884 main 30 23 _____P___OP___ -1 -19.9519 57.5788 99 -20.1000 58.2000 TC 35 -19.6672 57.8865 2 6 145
1944035S10059 1944 10 SI MM NOT_NAMED 1944-02-09 03:00:00 TS -20.1992 58.0868 main 33 31 _____P___PP___ -1 -20.2136 57.7950 99 -20.5475 58.4349 TC 35 -19.8364 58.0306 2 8 150
1944035S10059 1944 10 SI MM NOT_NAMED 1944-02-09 06:00:00 TS -20.5667 58.3000 reunion main 61 61 _____O___OO___ -1 -20.5000 58.0000 99 9.90000 -21.1000 58.7000 TC 35 -20.1000 58.2000 2 9 153
1944035S10059 1944 10 SI MM NOT_NAMED 1944-02-09 09:00:00 TS -21.0009 58.5174 main 100 100 _____P___PP___ -1 -20.8515 58.2003 99 -21.6349 58.9428 TC 35 -20.5163 58.4091 2 10 156
1944035S10059 1944 10 SI MM NOT_NAMED 1944-02-09 12:00:00 TS -21.4875 58.7466 main 152 152 _____P___OP___ -1 -21.2325 58.3920 99 -22.2000 59.2000 TC 35 -21.0300 58.6477 2 11 156
1944035S10059 1944 10 SI MM NOT_NAMED 1944-02-09 15:00:00 TS -22.0117 58.9906 main 215 215 _____P___PP___ -1 -21.6315 58.5740 99 -22.7999 59.4852 TC 30 -21.6037 58.9125 2 11 157
1944035S10059 1944 10 SI MM NOT_NAMED 1944-02-09 18:00:00 TS -22.4681 59.1983 main 272 272 _____P___OO___ -1 -22.0373 58.7454 99 -23.4000 59.8000 TC 25 -22.2000 59.2000 2 10 157
1944035S10059 1944 10 SI MM NOT_NAMED 1944-02-09 21:00:00 TS -22.8832 59.3929 main 320 320 _____P___PP___ -1 -22.4383 58.9049 99 -23.9627 60.1419 TC 25 -22.7883 59.5064 2 8 159
1944035S10059 1944 10 SI MM NOT_NAMED 1944-02-10 00:00:00 TS -23.2362 59.5236 main 354 354 _____P___OP___ -1 -22.8234 59.0513 99 -24.5000 60.5000 TC 25 -23.3655 59.8278 2 6 169
1944035S10059 1944 10 SI MM NOT_NAMED 1944-02-10 03:00:00 NR -23.4323 59.5091 main 373 373 _____P____P___ -1 -23.1811 59.1835 99 TC -23.9349 60.1604 2 5 0
1944035S10059 1944 10 SI MM NOT_NAMED 1944-02-10 06:00:00 NR -23.7000 59.5400 reunion main 402 398 _____O____O___ -1 -23.5000 59.3000 99 9.90000 -24.5000 60.5000 1 4 196
1944035S10059 1944 10 SI MM NOT_NAMED 1944-02-10 09:00:00 NR -23.7718 59.4002 main 408 408 _____P________ -1 -23.7718 59.4002 99 1 3 189
1944035S10059 1944 10 SI MM NOT_NAMED 1944-02-10 12:00:00 NR -23.9998 59.4854 main 432 432 _____P________ -1 -23.9998 59.4854 99 1 4 161
1944035S10059 1944 10 SI MM NOT_NAMED 1944-02-10 15:00:00 NR -24.1904 59.5577 main 457 457 _____P________ -1 -24.1904 59.5577 99 1 4 161
1944035S10059 1944 10 SI MM NOT_NAMED 1944-02-10 18:00:00 NR -24.3497 59.6192 main 467 467 _____P________ -1 -24.3497 59.6192 99 3 161
1944035S10059 1944 10 SI MM NOT_NAMED 1944-02-10 21:00:00 NR -24.4841 59.6720 main 492 492 _____P________ -1 -24.4841 59.6720 99 3 160
1944035S10059 1944 10 SI MM NOT_NAMED 1944-02-11 00:00:00 NR -24.5998 59.7183 main 502 502 _____P________ -1 -24.5998 59.7183 99 2 159
1944035S10059 1944 10 SI MM NOT_NAMED 1944-02-11 03:00:00 NR -24.7030 59.7602 main 516 516 _____P________ -1 -24.7030 59.7602 99 2 157
1944035S10059 1944 10 SI MM NOT_NAMED 1944-02-11 06:00:00 NR -24.8000 59.8000 reunion main 526 _____O________ -1 -24.8000 59.8000 99 9.90000 2 158

About IBTrACS Database

This database is a web-friendly format of International Best Track Archive for Climate Stewardship (IBTrACS), a global best track data archive curated by NOAA dating back to 1842.

Updated: 2021-10-21